Time;durP1;ratioP1;P1;durP2;ratioP2;P2;SDS_P1;SDS_P2;PMS_P1;PMS_P2;Temp;Humidity;BMP_temperature;BMP_pressure;BME280_temperature;BME280_humidity;BME280_pressure;Samples;Min_cycle;Max_cycle;Signal;HPM_P1;HPM_P2
2021/05/19 00:00:42;;;;;;;4.45;1.25;;;;;;;18.41;58.27;100184.59;4972616;28;20057;-80
2021/05/19 00:03:28;;;;;;;7.85;2.10;;;;;;;18.22;58.74;100187.59;4974820;28;20058;-81
2021/05/19 00:06:13;;;;;;;8.25;1.52;;;;;;;17.93;60.32;100187.28;4966136;28;20407;-81
2021/05/19 00:08:57;;;;;;;;;;;;;;;18.03;59.83;100185.03;4970634;28;20054;-79
2021/05/19 00:11:47;;;;;;;8.67;2.83;;;;;;;18.19;59.01;100194.63;4970855;28;19914;-80
2021/05/19 00:14:32;;;;;;;6.72;1.80;;;;;;;18.19;59.30;100193.81;4977397;28;20304;-81
2021/05/19 00:17:46;;;;;;;5.68;1.30;;;;;;;18.24;59.10;100204.50;4964599;28;20522;-81
2021/05/19 00:20:32;;;;;;;8.02;1.95;;;;;;;18.36;58.60;100215.22;4970415;28;20050;-82
2021/05/19 00:23:16;;;;;;;;;;;;;;;18.32;59.11;100208.91;4968186;28;20054;-80
2021/05/19 00:26:02;;;;;;;5.05;1.70;;;;;;;18.37;58.86;100214.84;4969847;28;19925;-80
2021/05/19 00:28:51;;;;;;;3.92;2.08;;;;;;;18.41;58.83;100212.13;4968586;28;20514;-79
2021/05/19 00:31:36;;;;;;;6.25;1.67;;;;;;;18.44;58.69;100224.38;4951029;28;20530;-79
2021/05/19 00:34:21;;;;;;;4.43;1.45;;;;;;;18.44;58.73;100214.09;4966808;28;20525;-81
2021/05/19 00:37:06;;;;;;;;;;;;;;;18.45;58.64;100218.44;4969280;28;20066;-79
2021/05/19 00:39:50;;;;;;;7.18;1.42;;;;;;;18.42;58.79;100216.47;4964290;28;19918;-79
2021/05/19 00:42:36;;;;;;;5.13;1.65;;;;;;;18.45;58.91;100209.41;4975998;28;20046;-81
2021/05/19 00:45:20;;;;;;;;;;;;;;;18.38;59.04;100210.16;4964502;28;20053;-80
2021/05/19 00:48:07;;;;;;;7.13;1.93;;;;;;;18.39;59.05;100209.75;4952308;28;19914;-80
2021/05/19 00:51:11;;;;;;;5.32;1.45;;;;;;;18.21;59.73;100208.00;4970161;28;20073;-79
2021/05/19 00:53:57;;;;;;;4.50;1.50;;;;;;;18.19;59.90;100213.09;4960081;28;20054;-78
2021/05/19 00:56:42;;;;;;;3.13;1.55;;;;;;;18.32;59.30;100225.44;4956542;28;20050;-79
2021/05/19 00:59:29;;;;;;;4.18;1.63;;;;;;;18.37;59.19;100214.06;4959851;28;20038;-80
2021/05/19 01:02:20;;;;;;;7.80;1.33;;;;;;;18.38;59.15;100215.66;4965956;28;20050;-80
2021/05/19 01:05:15;;;;;;;6.15;1.60;;;;;;;18.40;59.37;100224.31;4954353;28;20049;-79
2021/05/19 01:11:20;;;;;;;2.70;0.90;;;;;;;18.37;58.83;100214.84;4966802;28;20042;-79
2021/05/19 01:14:05;;;;;;;1.20;0.63;;;;;;;18.32;58.23;100209.69;4965881;28;20050;-79
2021/05/19 01:20:13;;;;;;;3.90;0.60;;;;;;;18.29;57.44;100218.69;4979139;23;20071;-80
2021/05/19 01:22:59;;;;;;;7.60;0.30;;;;;;;18.22;57.57;100209.59;4956122;28;20060;-80
2021/05/19 01:26:05;;;;;;;0.52;0.20;;;;;;;18.25;55.97;100208.84;4949352;29;20051;-80
2021/05/19 01:28:50;;;;;;;0.15;0.15;;;;;;;18.23;56.49;100213.94;4949213;28;20046;-79
2021/05/19 01:31:36;;;;;;;0.10;0.10;;;;;;;18.19;56.55;100210.34;4956380;28;20067;-82
2021/05/19 01:34:21;;;;;;;;;;;;;;;18.20;56.17;100211.94;4955051;28;20055;-78
2021/05/19 01:37:10;;;;;;;1.98;0.10;;;;;;;18.12;55.95;100215.78;4939036;28;19915;-87
2021/05/19 01:39:56;;;;;;;0.10;0.10;;;;;;;18.12;55.51;100221.31;4947402;29;20047;-87
2021/05/19 01:42:45;;;;;;;0.10;0.10;;;;;;;18.16;54.98;100228.41;4955475;28;20071;-89
2021/05/19 01:45:39;;;;;;;0.05;0.03;;;;;;;18.17;54.49;100223.72;4940635;28;20050;-87
2021/05/19 01:48:24;;;;;;;;;;;;;;;18.21;54.08;100225.31;4939534;29;20054;-88
2021/05/19 01:51:29;;;;;;;0.10;0.10;;;;;;;18.01;50.11;100218.44;4932218;29;19918;-87
2021/05/19 01:54:14;;;;;;;0.00;0.00;;;;;;;18.00;51.29;100224.31;4954728;28;20416;-88
2021/05/19 01:57:19;;;;;;;0.10;0.03;;;;;;;17.66;48.89;100224.34;4957736;28;20042;-89
2021/05/19 02:00:07;;;;;;;0.00;0.00;;;;;;;17.56;49.26;100235.16;4924619;29;20051;-88
2021/05/19 02:03:03;;;;;;;0.00;0.00;;;;;;;17.52;49.11;100238.66;4952291;28;20050;-88
2021/05/19 02:05:51;;;;;;;0.47;0.10;;;;;;;17.35;48.89;100230.19;4956409;28;20427;-87
2021/05/19 02:08:39;;;;;;;0.30;0.30;;;;;;;17.32;48.58;100234.44;4965259;28;20054;-89
2021/05/19 02:11:27;;;;;;;0.08;0.08;;;;;;;17.22;48.87;100242.56;4944302;28;20416;-89
2021/05/19 02:14:15;;;;;;;0.40;0.10;;;;;;;17.14;49.26;100258.16;4932569;29;20046;-87
2021/05/19 02:20:10;;;;;;;0.08;0.08;;;;;;;16.89;49.74;100259.72;4957431;28;20034;-87
2021/05/19 02:22:56;;;;;;;3.28;0.20;;;;;;;16.87;50.16;100260.09;4937632;28;20055;-87
2021/05/19 02:28:58;;;;;;;1.30;0.55;;;;;;;16.38;56.87;100275.69;5119086;27;20353;-83
2021/05/19 02:31:46;;;;;;;2.70;0.70;;;;;;;16.36;58.90;100278.78;5123179;28;20043;-84
2021/05/19 02:34:31;;;;;;;2.78;1.20;;;;;;;16.19;60.55;100284.78;5120451;28;20058;-85
2021/05/19 02:37:17;;;;;;;5.82;1.23;;;;;;;16.11;62.04;100286.56;5116506;28;20055;-83
2021/05/19 02:40:07;;;;;;;6.43;1.40;;;;;;;16.04;62.66;100291.94;5153146;27;20055;-84
2021/05/19 02:43:11;;;;;;;6.82;1.65;;;;;;;15.65;67.08;100296.59;5119266;28;20050;-83
2021/05/19 02:45:58;;;;;;;4.38;1.80;;;;;;;15.57;68.25;100286.66;5123856;28;20050;-84
2021/05/19 02:48:42;;;;;;;;;;;;;;;15.78;67.94;100300.00;5121815;28;20047;-83
2021/05/19 02:51:30;;;;;;;8.52;2.65;;;;;;;15.87;67.73;100292.38;5119772;28;19911;-83
2021/05/19 02:54:15;;;;;;;7.03;2.22;;;;;;;15.93;67.36;100296.41;5120446;28;20046;-83
2021/05/19 02:57:01;;;;;;;3.53;1.60;;;;;;;16.25;65.45;100297.81;5118733;28;20051;-83
2021/05/19 02:59:46;;;;;;;8.43;2.17;;;;;;;16.40;65.91;100309.88;5115617;28;20059;-82
2021/05/19 03:02:31;;;;;;;;;;;;;;;16.42;65.52;100306.75;5121121;28;20047;-84
2021/05/19 03:05:35;;;;;;;4.00;1.57;;;;;;;16.72;62.87;100310.44;5118007;28;19912;-83
2021/05/19 03:08:19;;;;;;;5.95;2.65;;;;;;;16.79;63.88;100318.81;5107177;28;20889;-86
2021/05/19 03:11:05;;;;;;;;;;;;;;;16.49;65.61;100317.84;5115717;28;20055;-86
2021/05/19 03:13:50;;;;;;;5.85;1.83;;;;;;;16.43;65.66;100324.81;5115050;28;19919;-85
2021/05/19 03:16:37;;;;;;;5.63;2.58;;;;;;;16.55;64.79;100324.66;5114316;28;20039;-84
2021/05/19 03:19:22;;;;;;;3.92;2.40;;;;;;;16.74;64.07;100329.31;5119265;28;20042;-85
2021/05/19 03:22:07;;;;;;;;;;;;;;;16.47;66.20;100342.13;5117509;28;20043;-84
2021/05/19 03:24:52;;;;;;;7.10;3.00;;;;;;;16.23;66.99;100338.53;5114305;28;20385;-85
2021/05/19 03:27:37;;;;;;;4.97;3.33;;;;;;;15.94;68.44;100347.38;5117468;28;20305;-84
2021/05/19 03:30:23;;;;;;;11.07;3.53;;;;;;;15.67;69.71;100359.28;5118661;28;20043;-86
2021/05/19 03:33:09;;;;;;;4.13;3.00;;;;;;;15.66;69.67;100354.97;5117549;28;20059;-85
2021/05/19 03:35:54;;;;;;;;;;;;;;;15.77;69.17;100361.47;5130049;28;20042;-86
2021/05/19 03:38:58;;;;;;;5.20;3.35;;;;;;;15.56;70.45;100367.28;5121981;28;19912;-84
2021/05/19 03:41:43;;;;;;;4.22;3.13;;;;;;;15.56;69.43;100356.31;5110480;28;20038;-86
2021/05/19 03:44:28;;;;;;;7.47;3.58;;;;;;;15.43;70.41;100359.50;5113061;28;20050;-86
2021/05/19 03:47:13;;;;;;;5.07;2.83;;;;;;;15.31;70.59;100363.94;5112714;28;20043;-84
2021/05/19 03:50:17;;;;;;;6.95;3.08;;;;;;;15.27;70.49;100374.00;5109689;28;20058;-86
2021/05/19 03:53:04;;;;;;;3.60;3.10;;;;;;;15.38;70.15;100380.56;5108058;28;20043;-87
2021/05/19 03:55:49;;;;;;;5.18;3.15;;;;;;;15.40;69.66;100389.19;5105606;28;20425;-85
2021/05/19 03:58:35;;;;;;;8.15;3.72;;;;;;;15.54;68.96;100404.44;5109953;28;20043;-87
2021/05/19 04:01:19;;;;;;;;;;;;;;;15.50;68.75;100403.50;5108239;28;20047;-86
2021/05/19 04:04:04;;;;;;;3.90;2.33;;;;;;;15.57;68.27;100411.94;5104010;28;19912;-86
2021/05/19 04:07:10;;;;;;;;;;;;;;;15.58;67.99;100408.84;5109588;28;20162;-86
2021/05/19 04:09:55;;;;;;;3.00;2.13;;;;;;;15.51;67.35;100416.88;5105445;28;19912;-85
2021/05/19 04:12:40;;;;;;;;;;;;;;;15.46;67.24;100419.06;5101929;28;20038;-85
2021/05/19 04:15:25;;;;;;;3.13;2.03;;;;;;;15.47;67.26;100418.72;5105803;28;20285;-86
2021/05/19 04:18:10;;;;;;;4.18;2.67;;;;;;;15.40;67.27;100416.59;5099529;28;20269;-87
2021/05/19 04:20:55;;;;;;;5.10;2.38;;;;;;;15.39;67.63;100420.47;5095338;28;20050;-85
2021/05/19 04:23:41;;;;;;;5.18;2.30;;;;;;;15.56;66.71;100424.03;5108516;28;20047;-86
2021/05/19 04:26:45;;;;;;;3.42;2.20;;;;;;;15.53;66.42;100419.28;5108380;28;20042;-86
2021/05/19 04:29:49;;;;;;;4.38;2.35;;;;;;;15.42;66.79;100427.22;5095881;28;20047;-86
2021/05/19 04:32:53;;;;;;;2.78;2.08;;;;;;;15.45;67.31;100431.16;5102406;28;20047;-85
2021/05/19 04:35:39;;;;;;;3.60;2.90;;;;;;;15.27;68.22;100426.06;5102162;28;20063;-85
2021/05/19 04:38:24;;;;;;;;;;;;;;;15.35;67.37;100441.53;5108511;28;20054;-84
2021/05/19 04:41:09;;;;;;;3.35;1.90;;;;;;;15.47;67.07;100439.84;5107024;28;19912;-86
2021/05/19 04:43:54;;;;;;;;;;;;;;;15.51;66.65;100448.94;5099900;28;20047;-86
2021/05/19 04:46:39;;;;;;;6.80;2.10;;;;;;;15.47;66.79;100445.31;5105461;28;20289;-87
2021/05/19 04:49:24;;;;;;;2.13;1.30;;;;;;;15.48;66.30;100441.44;5105577;28;20289;-85
2021/05/19 04:52:09;;;;;;;5.15;1.50;;;;;;;15.49;65.47;100462.22;5100628;28;20047;-86
2021/05/19 04:54:54;;;;;;;;;;;;;;;15.38;65.88;100460.00;5102629;28;20063;-85
2021/05/19 04:57:59;;;;;;;4.43;1.40;;;;;;;15.17;66.91;100447.72;5101806;28;20189;-88
2021/05/19 05:00:43;;;;;;;4.28;1.70;;;;;;;15.21;67.07;100452.13;5102487;28;20075;-88
2021/05/19 05:03:28;;;;;;;;;;;;;;;15.21;66.45;100452.13;5105535;28;20508;-86
2021/05/19 05:06:13;;;;;;;2.63;1.70;;;;;;;15.18;66.92;100446.56;5107650;28;19920;-89
2021/05/19 05:08:58;;;;;;;2.47;1.50;;;;;;;15.20;67.37;100444.25;5110412;28;20055;-83
2021/05/19 05:12:02;;;;;;;2.00;1.10;;;;;;;15.54;66.95;100454.56;5101573;28;20042;-85
2021/05/19 05:14:47;;;;;;;34.15;5.78;;;;;;;15.87;66.88;100459.63;5100344;28;20047;-89
2021/05/19 05:17:32;;;;;;;;;;;;;;;16.16;66.12;100459.09;5106986;28;20160;-85
2021/05/19 05:20:17;;;;;;;5.47;2.73;;;;;;;16.18;64.50;100461.50;5104869;28;19913;-87
2021/05/19 05:23:21;;;;;;;13.40;2.55;;;;;;;15.81;65.80;100464.59;5100365;28;20047;-84
2021/05/19 05:26:25;;;;;;;1.52;1.00;;;;;;;15.66;65.52;100456.38;5102883;28;20047;-84
2021/05/19 05:29:09;;;;;;;;;;;;;;;15.82;65.57;100466.19;5106068;28;20043;-86
2021/05/19 05:31:54;;;;;;;3.75;1.50;;;;;;;15.78;65.52;100464.53;5097187;28;20477;-88
2021/05/19 05:34:39;;;;;;;8.20;1.10;;;;;;;15.56;66.17;100460.47;5102080;28;20055;-87
2021/05/19 05:37:24;;;;;;;3.40;1.17;;;;;;;15.52;66.43;100453.31;5097638;28;20055;-87
2021/05/19 05:40:09;;;;;;;1.70;0.90;;;;;;;15.77;66.21;100462.91;5084415;28;20417;-87
2021/05/19 05:42:54;;;;;;;4.43;0.95;;;;;;;15.99;65.58;100466.97;5101997;28;20043;-86
2021/05/19 05:45:39;;;;;;;;;;;;;;;16.31;64.22;100464.91;5099793;28;20051;-88
2021/05/19 05:48:24;;;;;;;5.22;1.20;;;;;;;16.01;64.75;100461.91;5097076;28;19949;-87
2021/05/19 05:51:09;;;;;;;2.45;0.77;;;;;;;15.73;65.29;100457.38;5102257;28;20053;-88
2021/05/19 05:53:54;;;;;;;;;;;;;;;15.80;65.97;100462.19;5100584;28;20050;-87
2021/05/19 05:56:41;;;;;;;1.02;0.82;;;;;;;15.76;65.01;100456.63;5098615;28;19912;-86
2021/05/19 05:59:25;;;;;;;1.83;0.68;;;;;;;15.52;65.44;100465.06;5103220;28;20039;-87
2021/05/19 06:02:10;;;;;;;;;;;;;;;15.69;64.85;100467.47;5100724;28;20118;-86
2021/05/19 06:04:56;;;;;;;2.55;0.73;;;;;;;15.68;64.46;100470.53;5098434;28;19920;-88
2021/05/19 06:07:41;;;;;;;3.92;0.85;;;;;;;15.47;64.81;100484.50;5101236;28;20512;-86
2021/05/19 06:10:26;;;;;;;;;;;;;;;15.71;63.83;100478.84;5100117;28;20531;-86
2021/05/19 06:13:11;;;;;;;6.23;0.90;;;;;;;15.67;64.69;100480.72;5099205;28;19912;-86
2021/05/19 06:15:56;;;;;;;1.58;0.60;;;;;;;15.74;64.89;100477.34;5096562;28;20063;-85
2021/05/19 06:18:41;;;;;;;;;;;;;;;15.75;64.67;100484.41;5101436;28;20043;-85
2021/05/19 06:21:45;;;;;;;1.55;1.00;;;;;;;16.06;64.17;100498.06;5098442;28;20297;-86
2021/05/19 06:24:30;;;;;;;2.85;0.55;;;;;;;16.39;62.80;100507.81;5101372;28;20043;-87
2021/05/19 06:27:16;;;;;;;0.93;0.57;;;;;;;16.71;62.12;100503.03;5099522;28;20051;-86
2021/05/19 06:30:01;;;;;;;1.40;1.25;;;;;;;17.00;61.39;100508.72;5097957;28;20047;-86
2021/05/19 06:32:46;;;;;;;5.45;0.93;;;;;;;17.23;60.58;100521.69;5102340;28;20051;-87
2021/05/19 06:35:31;;;;;;;;;;;;;;;17.21;60.43;100524.03;5100990;28;20055;-85
2021/05/19 06:38:16;;;;;;;2.43;0.63;;;;;;;17.16;60.66;100527.06;5099175;28;19912;-87
2021/05/19 06:41:01;;;;;;;0.98;0.60;;;;;;;17.28;60.25;100524.16;5097525;28;20070;-86
2021/05/19 06:43:46;;;;;;;;;;;;;;;17.39;59.75;100538.88;5101359;28;20521;-86
2021/05/19 06:46:32;;;;;;;;;;;;;;;17.28;59.09;100541.44;5098853;28;19916;-86
2021/05/19 06:49:18;;;;;;;6.47;0.50;;;;;;;17.30;58.33;100536.38;5102789;28;19920;-85
2021/05/19 06:52:03;;;;;;;4.03;0.50;;;;;;;17.29;59.03;100532.03;5100296;28;20051;-86
2021/05/19 06:54:48;;;;;;;0.65;0.63;;;;;;;16.94;59.02;100536.84;5098953;28;20047;-86
2021/05/19 06:57:38;;;;;;;0.93;0.40;;;;;;;16.68;60.78;100545.72;5096622;28;20047;-86
2021/05/19 07:00:23;;;;;;;3.50;0.85;;;;;;;17.13;59.32;100531.34;5100522;28;20047;-86
2021/05/19 07:03:08;;;;;;;1.05;0.50;;;;;;;16.85;58.48;100545.31;5104366;28;20410;-86
2021/05/19 07:09:15;;;;;;;1.17;0.68;;;;;;;17.02;57.61;100550.34;5099893;28;20043;-85
2021/05/19 07:11:59;;;;;;;;;;;;;;;17.11;58.41;100563.88;5097551;28;20047;-86
2021/05/19 07:14:51;;;;;;;0.50;0.40;;;;;;;17.21;57.97;100566.06;5103667;28;19912;-86
2021/05/19 07:17:36;;;;;;;5.88;0.60;;;;;;;17.23;57.49;100576.66;5102675;28;20047;-87
2021/05/19 07:20:21;;;;;;;;;;;;;;;17.50;57.83;100581.13;5093827;22;20047;-86
2021/05/19 07:23:05;;;;;;;7.00;0.47;;;;;;;17.60;56.36;100580.53;5071387;28;19924;-87
2021/05/19 07:25:50;;;;;;;1.13;0.45;;;;;;;17.59;54.80;100576.19;5078832;28;20410;-87
2021/05/19 07:28:37;;;;;;;2.40;0.70;;;;;;;17.05;55.95;100582.63;5077945;28;20422;-85
2021/05/19 07:31:21;;;;;;;;;;;;;;;17.05;55.62;100587.31;5075468;28;20047;-85
2021/05/19 07:34:06;;;;;;;0.45;0.43;;;;;;;17.04;56.07;100575.53;5068109;28;19913;-85
2021/05/19 07:36:51;;;;;;;;;;;;;;;16.81;57.13;100587.59;5080515;28;20044;-85
2021/05/19 07:39:35;;;;;;;0.30;0.30;;;;;;;16.93;56.79;100582.75;5079468;28;19912;-86
2021/05/19 07:42:40;;;;;;;0.57;0.32;;;;;;;17.07;56.74;100588.53;5098842;28;20048;-87
2021/05/19 07:45:24;;;;;;;1.02;0.45;;;;;;;17.17;55.48;100587.16;5078376;28;20047;-87
2021/05/19 07:48:10;;;;;;;;;;;;;;;17.30;55.02;100587.81;5074945;28;20364;-86
2021/05/19 07:51:15;;;;;;;0.70;0.40;;;;;;;17.40;54.47;100587.22;5079020;28;20301;-85
2021/05/19 07:54:01;;;;;;;3.10;0.40;;;;;;;17.57;54.08;100584.00;5076513;28;20052;-86
2021/05/19 07:56:55;;;;;;;11.77;0.60;;;;;;;17.45;54.54;100573.97;5079802;28;20043;-85
2021/05/19 07:59:40;;;;;;;1.83;0.70;;;;;;;17.63;54.31;100582.56;5065380;28;20523;-86
2021/05/19 08:02:25;;;;;;;0.40;0.30;;;;;;;17.60;54.12;100579.75;5056330;28;20048;-84
2021/05/19 08:05:11;;;;;;;0.82;0.40;;;;;;;17.66;54.34;100579.09;5059938;28;20056;-83
2021/05/19 08:07:57;;;;;;;1.05;0.40;;;;;;;17.53;53.83;100577.63;5040887;28;20040;-84
2021/05/19 08:10:43;;;;;;;1.27;0.43;;;;;;;17.62;53.96;100578.22;5076380;28;20051;-82
2021/05/19 08:13:28;;;;;;;3.35;0.80;;;;;;;17.72;54.07;100582.34;5081344;28;20043;-79
2021/05/19 08:16:14;;;;;;;3.90;1.20;;;;;;;17.63;54.12;100576.25;5079409;28;20418;-82
2021/05/19 08:18:59;;;;;;;1.95;0.40;;;;;;;17.73;52.80;100564.63;5056983;28;20048;-82
2021/05/19 08:21:44;;;;;;;1.05;0.40;;;;;;;17.91;54.19;100572.06;5060544;28;20411;-82
2021/05/19 08:24:29;;;;;;;;;;;;;;;17.97;52.41;100574.50;5046649;28;20048;-81
2021/05/19 08:27:15;;;;;;;0.40;0.32;;;;;;;17.91;53.39;100579.50;5059017;28;19917;-79
2021/05/19 08:30:01;;;;;;;2.40;1.33;;;;;;;17.93;52.15;100571.66;5059102;28;20060;-80
2021/05/19 08:33:05;;;;;;;;;;;;;;;18.00;51.44;100582.00;5057208;28;20435;-78
2021/05/19 08:35:49;;;;;;;2.03;0.50;;;;;;;17.91;51.88;100577.56;5074304;28;20302;-79
2021/05/19 08:38:37;;;;;;;0.80;0.40;;;;;;;17.86;52.81;100582.56;5077681;28;20043;-79
2021/05/19 08:41:22;;;;;;;7.43;0.70;;;;;;;17.92;51.59;100581.09;5075003;28;20064;-80
2021/05/19 08:44:07;;;;;;;0.63;0.60;;;;;;;17.93;52.48;100575.22;5078686;28;20048;-79
2021/05/19 08:47:11;;;;;;;0.38;0.30;;;;;;;18.12;51.80;100581.81;5077095;28;20063;-79
2021/05/19 08:49:56;;;;;;;0.90;0.50;;;;;;;18.25;51.70;100586.75;5075508;28;20059;-80
2021/05/19 08:52:43;;;;;;;1.10;0.50;;;;;;;18.38;51.49;100581.84;5078783;28;20517;-82
2021/05/19 08:55:28;;;;;;;3.90;0.52;;;;;;;18.51;51.02;100585.16;5075924;28;20048;-80
2021/05/19 08:58:13;;;;;;;0.50;0.50;;;;;;;18.59;51.14;100575.88;5074424;28;20039;-80
2021/05/19 09:01:21;;;;;;;3.05;0.32;;;;;;;18.66;50.62;100581.47;5074304;28;20509;-80
2021/05/19 09:04:24;;;;;;;2.25;0.60;;;;;;;18.62;50.73;100584.16;5072520;28;20239;-82
2021/05/19 09:07:20;;;;;;;0.73;0.40;;;;;;;18.60;50.40;100580.97;5079637;28;20056;-81
2021/05/19 09:10:18;;;;;;;9.43;0.75;;;;;;;18.68;49.98;100574.41;5078282;28;20043;-84
2021/05/19 09:13:31;;;;;;;0.52;0.50;;;;;;;18.75;48.38;100581.97;5075888;28;20059;-81
2021/05/19 09:16:47;;;;;;;2.72;0.45;;;;;;;18.67;49.84;100570.06;5079637;28;20051;-85
2021/05/19 09:19:33;;;;;;;1.17;0.30;;;;;;;18.84;50.01;100581.72;5078741;28;20064;-78
2021/05/19 09:22:20;;;;;;;0.98;0.68;;;;;;;18.82;49.21;100575.75;5076301;28;20052;-80
2021/05/19 09:25:25;;;;;;;1.02;0.50;;;;;;;18.79;49.71;100569.81;5073160;28;20064;-80
2021/05/19 09:28:23;;;;;;;2.55;0.45;;;;;;;18.81;50.08;100574.97;5077563;28;20052;-80
2021/05/19 09:31:26;;;;;;;0.88;0.55;;;;;;;18.78;49.93;100570.22;5074843;28;20051;-78
2021/05/19 09:34:42;;;;;;;0.57;0.28;;;;;;;19.02;48.94;100563.41;5077135;28;20043;-82
2021/05/19 09:37:30;;;;;;;0.50;0.40;;;;;;;18.93;50.11;100562.91;5068056;28;20056;-80
2021/05/19 09:40:15;;;;;;;1.23;0.50;;;;;;;18.84;50.40;100565.19;5072228;28;20043;-80
2021/05/19 09:43:00;;;;;;;;;;;;;;;18.96;50.47;100564.91;5075518;28;20067;-82
2021/05/19 09:46:01;;;;;;;3.97;0.40;;;;;;;19.01;50.08;100570.09;5074563;28;19916;-82
2021/05/19 09:48:46;;;;;;;1.25;0.50;;;;;;;18.97;50.47;100556.28;5078224;28;20047;-80
2021/05/19 09:51:32;;;;;;;2.40;0.57;;;;;;;19.02;50.06;100555.16;5076265;28;20430;-82
2021/05/19 09:54:38;;;;;;;2.05;0.60;;;;;;;18.94;49.46;100556.25;5074818;28;20331;-80
2021/05/19 10:00:29;;;;;;;0.70;0.40;;;;;;;19.11;49.83;100561.16;5074070;28;20044;-81
2021/05/19 10:03:18;;;;;;;1.33;0.70;;;;;;;19.27;47.96;100564.50;5080014;28;20043;-81
2021/05/19 10:09:08;;;;;;;;;;;;;;;19.43;46.53;100556.78;5077349;28;20043;-85
2021/05/19 10:11:53;;;;;;;1.55;0.68;;;;;;;19.43;48.01;100547.72;5081010;28;19912;-85
2021/05/19 10:14:40;;;;;;;1.17;0.52;;;;;;;19.35;47.98;100557.88;5075025;28;20513;-81
2021/05/19 10:17:48;;;;;;;1.98;0.85;;;;;;;19.53;44.64;100545.09;5071105;28;20406;-81
2021/05/19 10:20:54;;;;;;;3.15;0.70;;;;;;;19.60;45.07;100553.44;5058256;28;20513;-80
2021/05/19 10:23:51;;;;;;;0.52;0.47;;;;;;;19.49;46.36;100544.28;5072199;28;20051;-80
2021/05/19 10:27:02;;;;;;;1.15;0.68;;;;;;;19.49;44.92;100546.25;5075624;28;20405;-80
2021/05/19 10:30:07;;;;;;;1.08;0.60;;;;;;;19.63;46.35;100536.13;5072607;28;20056;-82
2021/05/19 10:32:52;;;;;;;2.95;0.65;;;;;;;19.64;46.11;100536.94;5075928;28;20403;-82
2021/05/19 10:35:38;;;;;;;0.60;0.40;;;;;;;19.47;46.78;100540.31;5074169;28;20043;-80
2021/05/19 10:38:27;;;;;;;1.13;0.60;;;;;;;19.41;46.11;100534.31;5072086;28;20043;-81
2021/05/19 10:41:12;;;;;;;0.93;0.50;;;;;;;19.63;45.79;100533.38;5077314;28;20043;-79
2021/05/19 10:44:04;;;;;;;;;;;;;;;19.57;46.27;100532.13;5075063;28;20044;-79
2021/05/19 10:47:07;;;;;;;1.70;0.50;;;;;;;19.60;46.06;100525.06;5071131;28;19912;-80
2021/05/19 10:50:06;;;;;;;1.33;0.50;;;;;;;19.54;46.64;100527.38;5079796;28;20051;-79
2021/05/19 10:59:10;;;;;;;1.30;0.60;;;;;;;19.70;46.41;100496.78;5078549;28;20402;-80
2021/05/19 11:01:56;;;;;;;1.42;0.52;;;;;;;19.53;47.01;100508.44;5082678;28;20446;-84
2021/05/19 11:05:11;;;;;;;2.75;0.85;;;;;;;19.59;46.13;100498.66;5084315;28;20402;-81
2021/05/19 11:08:05;;;;;;;3.42;0.77;;;;;;;19.61;45.43;100502.59;5083157;28;20047;-83
2021/05/19 11:11:02;;;;;;;5.63;0.95;;;;;;;19.59;46.11;100495.91;5079699;28;20052;-82
2021/05/19 11:14:03;;;;;;;2.08;0.50;;;;;;;19.80;44.64;100496.06;5075688;28;20043;-80
2021/05/19 11:17:19;;;;;;;3.22;0.52;;;;;;;19.87;45.01;100500.84;5079219;28;20052;-80
2021/05/19 11:20:03;;;;;;;2.40;0.65;;;;;;;19.82;44.99;100495.66;5075579;28;20043;-82
2021/05/19 11:22:48;;;;;;;3.85;0.63;;;;;;;19.79;43.67;100496.44;5079644;28;20301;-82
2021/05/19 11:25:33;;;;;;;;;;;;;;;20.03;44.16;100495.81;5074021;28;20043;-82
2021/05/19 11:28:25;;;;;;;4.15;0.63;;;;;;;19.96;44.53;100495.78;5058859;28;19912;-82
2021/05/19 11:31:36;;;;;;;2.65;0.47;;;;;;;19.91;44.57;100485.88;5076611;28;20067;-81
2021/05/19 11:34:22;;;;;;;1.15;0.65;;;;;;;19.86;44.05;100482.72;5076875;28;20052;-81
2021/05/19 11:37:26;;;;;;;0.90;0.47;;;;;;;19.97;44.21;100483.56;5065891;28;20051;-82
2021/05/19 11:40:12;;;;;;;3.80;0.50;;;;;;;19.96;43.79;100470.94;5078239;28;20056;-79
2021/05/19 11:42:58;;;;;;;0.80;0.40;;;;;;;20.02;44.03;100474.91;5073141;28;20670;-82
2021/05/19 11:45:45;;;;;;;1.20;0.40;;;;;;;19.98;44.17;100476.88;5079446;28;20051;-82
2021/05/19 11:48:49;;;;;;;1.40;0.50;;;;;;;20.12;43.24;100465.91;5077814;28;20047;-81
2021/05/19 11:51:34;;;;;;;3.75;0.70;;;;;;;20.20;42.67;100463.97;5075903;28;20059;-83
2021/05/19 11:57:23;;;;;;;2.30;1.25;;;;;;;20.32;41.90;100461.69;5076141;28;20043;-83
2021/05/19 12:00:08;;;;;;;1.45;0.32;;;;;;;20.45;42.58;100454.69;5081357;28;20035;-81
2021/05/19 12:02:58;;;;;;;0.60;0.40;;;;;;;20.25;43.31;100447.84;5077037;28;20051;-82
2021/05/19 12:05:45;;;;;;;1.75;0.60;;;;;;;20.28;42.51;100452.59;5072191;28;20150;-84
2021/05/19 12:08:32;;;;;;;7.55;0.93;;;;;;;20.51;39.42;100446.81;5076293;28;20047;-79
2021/05/19 12:11:24;;;;;;;1.75;0.60;;;;;;;20.66;39.31;100442.13;5071882;28;20048;-81
2021/05/19 12:14:11;;;;;;;1.48;0.50;;;;;;;20.63;41.09;100437.34;5050675;28;20043;-81
2021/05/19 12:16:55;;;;;;;0.57;0.50;;;;;;;20.74;40.73;100432.66;5066011;28;20525;-82
2021/05/19 12:19:40;;;;;;;0.93;0.68;;;;;;;20.44;41.75;100433.75;5065643;28;20509;-81
2021/05/19 12:22:26;;;;;;;2.72;0.55;;;;;;;20.37;42.07;100435.69;5066965;28;20044;-78
2021/05/19 12:25:29;;;;;;;1.30;0.50;;;;;;;20.59;41.18;100436.56;5082468;28;20063;-82
2021/05/19 12:28:22;;;;;;;3.25;0.52;;;;;;;20.48;41.57;100426.25;5070849;28;20102;-83
2021/05/19 12:31:07;;;;;;;1.77;0.77;;;;;;;20.39;42.99;100412.03;5072943;28;20707;-80
2021/05/19 12:34:11;;;;;;;;;;;;;;;20.33;43.04;100416.34;5062377;28;20513;-80
2021/05/19 12:36:56;;;;;;;1.23;0.57;;;;;;;20.29;42.68;100418.28;5062848;28;19913;-81
2021/05/19 12:39:43;;;;;;;;;;;;;;;20.40;42.16;100410.84;5075761;28;20051;-83
2021/05/19 12:42:28;;;;;;;0.85;0.63;;;;;;;20.41;42.14;100404.16;5074716;28;19912;-80
2021/05/19 12:45:15;;;;;;;1.35;0.50;;;;;;;20.29;42.81;100409.97;5071002;28;20043;-80
2021/05/19 12:48:11;;;;;;;0.47;0.40;;;;;;;20.61;40.11;100406.59;5078497;28;20513;-81
2021/05/19 12:51:00;;;;;;;0.68;0.52;;;;;;;20.63;39.86;100405.00;5062017;28;20641;-79
2021/05/19 12:54:04;;;;;;;0.90;0.57;;;;;;;20.67;41.17;100405.03;5074855;28;20651;-82
2021/05/19 12:57:04;;;;;;;0.63;0.50;;;;;;;20.62;40.99;100395.13;5076693;28;20052;-82
2021/05/19 12:59:55;;;;;;;3.67;0.55;;;;;;;20.54;41.79;100398.25;5077095;28;20035;-83
2021/05/19 13:02:40;;;;;;;1.95;0.80;;;;;;;20.54;41.67;100392.72;5081431;28;20047;-82
2021/05/19 13:05:27;;;;;;;3.95;1.13;;;;;;;20.57;40.57;100391.97;5077290;28;20048;-85
2021/05/19 13:08:19;;;;;;;3.80;0.57;;;;;;;20.35;41.86;100393.88;5059070;28;20043;-80
2021/05/19 13:11:09;;;;;;;7.20;0.95;;;;;;;20.28;41.94;100393.78;5069514;28;20037;-81
2021/05/19 13:13:55;;;;;;;1.17;0.60;;;;;;;20.27;41.67;100393.00;5087419;28;20426;-79
2021/05/19 13:16:44;;;;;;;1.75;0.50;;;;;;;20.30;41.82;100394.22;5071390;28;20203;-81
2021/05/19 13:19:29;;;;;;;1.00;0.57;;;;;;;20.30;40.70;100394.22;5088714;22;20048;-85
2021/05/19 13:22:46;;;;;;;0.98;0.60;;;;;;;20.22;41.24;100393.38;5034456;28;20125;-83
2021/05/19 13:25:32;;;;;;;4.45;0.50;;;;;;;20.13;42.18;100395.72;5031315;28;20049;-86
2021/05/19 13:31:31;;;;;;;1.70;0.50;;;;;;;20.29;41.61;100393.41;5015774;28;20033;-83
2021/05/19 13:37:07;;;;;;;0.82;0.30;;;;;;;20.12;42.61;100396.09;5013462;28;20049;-84
2021/05/19 13:39:53;;;;;;;2.67;0.50;;;;;;;20.06;43.13;100390.94;5013109;28;20053;-83
2021/05/19 13:42:38;;;;;;;3.25;0.40;;;;;;;20.07;43.34;100395.28;5015963;28;20045;-86
2021/05/19 13:45:23;;;;;;;10.07;0.50;;;;;;;19.81;44.31;100397.53;5012485;28;20056;-88
2021/05/19 13:48:08;;;;;;;3.60;0.68;;;;;;;19.78;44.77;100390.00;5024862;28;20049;-84
2021/05/19 13:50:53;;;;;;;2.95;0.35;;;;;;;19.82;44.46;100379.75;5000967;28;20049;-87
2021/05/19 13:53:38;;;;;;;1.77;0.60;;;;;;;19.79;44.54;100388.81;5009563;28;20673;-87
2021/05/19 13:56:23;;;;;;;1.02;0.55;;;;;;;19.78;44.41;100398.28;5022194;28;20054;-87